sensor_id;sensor_type;location;lat;lon;timestamp;pressure;altitude;pressure_sealevel;temperature;humidity
6464;BME280;3265;42.694;23.282;2023-01-20T00:01:04;93729.03;;;8.17;100.00
6464;BME280;3265;42.694;23.282;2023-01-20T00:03:31;93740.88;;;8.13;100.00
6464;BME280;3265;42.694;23.282;2023-01-20T00:06:29;93748.28;;;8.10;100.00
6464;BME280;3265;42.694;23.282;2023-01-20T00:08:57;93724.31;;;8.02;100.00
6464;BME280;3265;42.694;23.282;2023-01-20T00:11:25;93691.03;;;7.94;100.00
6464;BME280;3265;42.694;23.282;2023-01-20T00:13:56;93716.53;;;8.14;100.00
6464;BME280;3265;42.694;23.282;2023-01-20T00:16:25;93582.38;;;7.94;100.00
6464;BME280;3265;42.694;23.282;2023-01-20T00:18:52;93550.69;;;7.99;100.00
6464;BME280;3265;42.694;23.282;2023-01-20T00:21:20;93497.13;;;7.99;100.00
6464;BME280;3265;42.694;23.282;2023-01-20T00:23:49;93505.13;;;7.98;100.00
6464;BME280;3265;42.694;23.282;2023-01-20T00:26:17;93534.72;;;7.90;100.00
6464;BME280;3265;42.694;23.282;2023-01-20T00:28:44;93539.44;;;7.93;100.00
6464;BME280;3265;42.694;23.282;2023-01-20T00:31:14;93534.72;;;7.90;100.00
6464;BME280;3265;42.694;23.282;2023-01-20T00:33:41;93544.75;;;7.87;100.00
6464;BME280;3265;42.694;23.282;2023-01-20T00:36:09;93542.50;;;7.79;100.00
6464;BME280;3265;42.694;23.282;2023-01-20T00:38:36;93545.53;;;7.87;100.00
6464;BME280;3265;42.694;23.282;2023-01-20T00:41:04;93532.66;;;8.04;100.00
6464;BME280;3265;42.694;23.282;2023-01-20T00:43:32;93510.19;;;7.93;100.00
6464;BME280;3265;42.694;23.282;2023-01-20T00:46:00;93520.19;;;8.01;100.00
6464;BME280;3265;42.694;23.282;2023-01-20T00:48:27;93507.63;;;7.93;100.00
6464;BME280;3265;42.694;23.282;2023-01-20T00:50:54;93515.09;;;8.06;100.00
6464;BME280;3265;42.694;23.282;2023-01-20T00:53:21;93531.59;;;8.17;100.00
6464;BME280;3265;42.694;23.282;2023-01-20T00:55:48;93529.00;;;8.17;100.00
6464;BME280;3265;42.694;23.282;2023-01-20T00:58:16;93520.69;;;8.15;100.00
6464;BME280;3265;42.694;23.282;2023-01-20T01:00:45;93501.44;;;8.22;100.00
6464;BME280;3265;42.694;23.282;2023-01-20T01:03:12;93524.59;;;8.29;100.00
6464;BME280;3265;42.694;23.282;2023-01-20T01:05:39;93486.59;;;8.18;100.00
6464;BME280;3265;42.694;23.282;2023-01-20T01:08:06;93484.25;;;8.16;100.00
6464;BME280;3265;42.694;23.282;2023-01-20T01:10:33;93467.16;;;8.15;100.00
6464;BME280;3265;42.694;23.282;2023-01-20T01:13:00;93496.81;;;8.24;100.00
6464;BME280;3265;42.694;23.282;2023-01-20T01:15:29;93491.53;;;8.31;100.00
6464;BME280;3265;42.694;23.282;2023-01-20T01:17:58;93501.19;;;8.35;100.00
6464;BME280;3265;42.694;23.282;2023-01-20T01:20:25;93499.78;;;8.44;100.00
6464;BME280;3265;42.694;23.282;2023-01-20T01:22:52;93502.91;;;8.46;100.00
6464;BME280;3265;42.694;23.282;2023-01-20T01:25:20;93513.06;;;8.48;100.00
6464;BME280;3265;42.694;23.282;2023-01-20T01:27:47;93503.78;;;8.52;100.00
6464;BME280;3265;42.694;23.282;2023-01-20T01:30:13;93495.41;;;8.62;100.00
6464;BME280;3265;42.694;23.282;2023-01-20T01:32:42;93497.06;;;8.68;100.00
6464;BME280;3265;42.694;23.282;2023-01-20T01:35:08;93503.09;;;8.73;100.00
6464;BME280;3265;42.694;23.282;2023-01-20T01:37:35;93487.41;;;8.80;100.00
6464;BME280;3265;42.694;23.282;2023-01-20T01:40:03;93504.63;;;8.86;100.00
6464;BME280;3265;42.694;23.282;2023-01-20T01:42:30;93490.22;;;8.95;100.00
6464;BME280;3265;42.694;23.282;2023-01-20T01:48:05;93496.09;;;9.07;100.00
6464;BME280;3265;42.694;23.282;2023-01-20T01:50:36;93505.22;;;9.09;100.00
6464;BME280;3265;42.694;23.282;2023-01-20T01:53:06;93512.91;;;9.04;100.00
6464;BME280;3265;42.694;23.282;2023-01-20T01:55:46;93507.81;;;9.09;100.00
6464;BME280;3265;42.694;23.282;2023-01-20T01:58:17;93508.13;;;9.13;100.00
6464;BME280;3265;42.694;23.282;2023-01-20T02:00:47;93504.66;;;9.07;100.00
6464;BME280;3265;42.694;23.282;2023-01-20T02:03:15;93502.81;;;9.03;100.00
6464;BME280;3265;42.694;23.282;2023-01-20T02:05:43;93498.56;;;8.97;100.00
6464;BME280;3265;42.694;23.282;2023-01-20T02:08:11;93497.22;;;8.94;100.00
6464;BME280;3265;42.694;23.282;2023-01-20T02:10:38;93491.81;;;8.96;100.00
6464;BME280;3265;42.694;23.282;2023-01-20T02:13:05;93493.59;;;8.95;100.00
6464;BME280;3265;42.694;23.282;2023-01-20T02:15:37;93486.47;;;9.02;100.00
6464;BME280;3265;42.694;23.282;2023-01-20T02:18:26;93473.56;;;9.07;100.00
6464;BME280;3265;42.694;23.282;2023-01-20T02:24:45;93482.38;;;8.90;100.00
6464;BME280;3265;42.694;23.282;2023-01-20T02:27:15;93488.75;;;8.82;100.00
6464;BME280;3265;42.694;23.282;2023-01-20T02:30:08;93484.97;;;8.73;100.00
6464;BME280;3265;42.694;23.282;2023-01-20T02:32:46;93471.78;;;8.75;100.00
6464;BME280;3265;42.694;23.282;2023-01-20T02:35:21;93461.53;;;8.80;100.00
6464;BME280;3265;42.694;23.282;2023-01-20T02:37:57;93470.31;;;8.79;100.00
6464;BME280;3265;42.694;23.282;2023-01-20T02:40:30;93466.59;;;8.75;100.00
6464;BME280;3265;42.694;23.282;2023-01-20T02:43:04;93451.31;;;8.73;100.00
6464;BME280;3265;42.694;23.282;2023-01-20T02:45:41;93453.97;;;8.78;100.00
6464;BME280;3265;42.694;23.282;2023-01-20T02:48:15;93451.53;;;8.72;100.00
6464;BME280;3265;42.694;23.282;2023-01-20T02:50:53;93447.38;;;8.71;100.00
6464;BME280;3265;42.694;23.282;2023-01-20T02:53:23;93449.50;;;8.74;100.00
6464;BME280;3265;42.694;23.282;2023-01-20T02:55:53;93446.75;;;8.64;100.00
6464;BME280;3265;42.694;23.282;2023-01-20T02:58:23;93436.31;;;8.59;100.00
6464;BME280;3265;42.694;23.282;2023-01-20T03:00:54;93409.25;;;8.33;100.00
6464;BME280;3265;42.694;23.282;2023-01-20T03:03:27;93427.69;;;8.53;100.00
6464;BME280;3265;42.694;23.282;2023-01-20T03:05:57;93416.69;;;8.46;100.00
6464;BME280;3265;42.694;23.282;2023-01-20T03:08:27;93437.59;;;8.56;100.00
6464;BME280;3265;42.694;23.282;2023-01-20T03:11:00;93445.03;;;8.52;100.00
6464;BME280;3265;42.694;23.282;2023-01-20T03:13:31;93432.75;;;8.31;100.00
6464;BME280;3265;42.694;23.282;2023-01-20T03:16:03;93426.69;;;8.26;100.00
6464;BME280;3265;42.694;23.282;2023-01-20T03:18:32;93429.72;;;8.34;100.00
6464;BME280;3265;42.694;23.282;2023-01-20T03:21:01;93439.06;;;8.35;100.00
6464;BME280;3265;42.694;23.282;2023-01-20T03:23:31;93439.78;;;8.47;100.00
6464;BME280;3265;42.694;23.282;2023-01-20T03:25:59;93425.19;;;8.41;100.00
6464;BME280;3265;42.694;23.282;2023-01-20T03:28:28;93436.31;;;8.59;100.00
6464;BME280;3265;42.694;23.282;2023-01-20T03:30:56;93431.69;;;8.61;100.00
6464;BME280;3265;42.694;23.282;2023-01-20T03:33:23;93431.28;;;8.69;100.00
6464;BME280;3265;42.694;23.282;2023-01-20T03:35:53;93431.38;;;8.74;100.00
6464;BME280;3265;42.694;23.282;2023-01-20T03:38:20;93435.31;;;8.76;100.00
6464;BME280;3265;42.694;23.282;2023-01-20T03:40:52;93435.63;;;8.80;100.00
6464;BME280;3265;42.694;23.282;2023-01-20T03:43:29;93440.81;;;8.80;100.00
6464;BME280;3265;42.694;23.282;2023-01-20T03:46:01;93449.91;;;8.82;100.00
6464;BME280;3265;42.694;23.282;2023-01-20T03:48:38;93447.00;;;8.79;100.00
6464;BME280;3265;42.694;23.282;2023-01-20T03:51:18;93421.03;;;8.74;100.00
6464;BME280;3265;42.694;23.282;2023-01-20T03:53:51;93413.25;;;8.74;100.00
6464;BME280;3265;42.694;23.282;2023-01-20T03:56:21;93408.47;;;8.82;100.00
6464;BME280;3265;42.694;23.282;2023-01-20T03:58:52;93399.91;;;8.82;100.00
6464;BME280;3265;42.694;23.282;2023-01-20T04:01:25;93400.69;;;8.82;100.00
6464;BME280;3265;42.694;23.282;2023-01-20T04:03:56;93395.03;;;8.85;100.00
6464;BME280;3265;42.694;23.282;2023-01-20T04:06:25;93390.13;;;8.89;100.00
6464;BME280;3265;42.694;23.282;2023-01-20T04:08:55;93374.47;;;8.79;100.00
6464;BME280;3265;42.694;23.282;2023-01-20T04:11:24;93385.53;;;8.91;100.00
6464;BME280;3265;42.694;23.282;2023-01-20T04:13:52;93384.47;;;8.92;100.00
6464;BME280;3265;42.694;23.282;2023-01-20T04:16:19;93394.78;;;8.87;100.00
6464;BME280;3265;42.694;23.282;2023-01-20T04:18:49;93385.53;;;8.91;100.00
6464;BME280;3265;42.694;23.282;2023-01-20T04:21:21;93372.78;;;8.89;100.00
6464;BME280;3265;42.694;23.282;2023-01-20T04:23:54;93361.34;;;8.85;100.00
6464;BME280;3265;42.694;23.282;2023-01-20T04:26:23;93366.22;;;8.82;100.00
6464;BME280;3265;42.694;23.282;2023-01-20T04:28:49;93363.84;;;8.80;100.00
6464;BME280;3265;42.694;23.282;2023-01-20T04:31:16;93363.94;;;8.85;100.00
6464;BME280;3265;42.694;23.282;2023-01-20T04:33:43;93356.72;;;8.87;100.00
6464;BME280;3265;42.694;23.282;2023-01-20T04:36:10;93355.59;;;8.83;100.00
6464;BME280;3265;42.694;23.282;2023-01-20T04:38:37;93356.19;;;8.85;100.00
6464;BME280;3265;42.694;23.282;2023-01-20T04:41:05;93359.00;;;8.84;100.00
6464;BME280;3265;42.694;23.282;2023-01-20T04:43:32;93360.41;;;8.91;100.00
6464;BME280;3265;42.694;23.282;2023-01-20T04:45:59;93380.66;;;8.94;100.00
6464;BME280;3265;42.694;23.282;2023-01-20T04:48:25;93379.13;;;8.98;100.00
6464;BME280;3265;42.694;23.282;2023-01-20T04:50:52;93385.41;;;9.02;100.00
6464;BME280;3265;42.694;23.282;2023-01-20T04:53:19;93387.75;;;9.04;100.00
6464;BME280;3265;42.694;23.282;2023-01-20T04:55:46;93394.25;;;9.06;100.00
6464;BME280;3265;42.694;23.282;2023-01-20T04:58:14;93398.91;;;9.04;100.00
6464;BME280;3265;42.694;23.282;2023-01-20T05:00:41;93414.06;;;8.96;100.00
6464;BME280;3265;42.694;23.282;2023-01-20T05:03:08;93413.16;;;8.85;100.00
6464;BME280;3265;42.694;23.282;2023-01-20T05:05:34;93407.50;;;8.72;100.00
6464;BME280;3265;42.694;23.282;2023-01-20T05:08:01;93434.56;;;8.81;100.00
6464;BME280;3265;42.694;23.282;2023-01-20T05:10:29;93438.75;;;8.82;100.00
6464;BME280;3265;42.694;23.282;2023-01-20T05:12:56;93429.97;;;8.83;100.00
6464;BME280;3265;42.694;23.282;2023-01-20T05:15:25;93417.31;;;8.86;100.00
6464;BME280;3265;42.694;23.282;2023-01-20T05:17:52;93416.03;;;8.89;100.00
6464;BME280;3265;42.694;23.282;2023-01-20T05:20:19;93404.72;;;8.95;100.00
6464;BME280;3265;42.694;23.282;2023-01-20T05:22:46;93397.84;;;8.84;100.00
6464;BME280;3265;42.694;23.282;2023-01-20T05:25:13;93418.34;;;8.69;100.00
6464;BME280;3265;42.694;23.282;2023-01-20T05:27:39;93426.22;;;8.57;100.00
6464;BME280;3265;42.694;23.282;2023-01-20T05:30:08;93417.72;;;8.45;100.00
6464;BME280;3265;42.694;23.282;2023-01-20T05:32:36;93416.47;;;8.31;100.00
6464;BME280;3265;42.694;23.282;2023-01-20T05:35:03;93444.41;;;8.45;100.00
6464;BME280;3265;42.694;23.282;2023-01-20T05:37:30;93445.97;;;8.18;100.00
6464;BME280;3265;42.694;23.282;2023-01-20T05:39:57;93438.19;;;8.02;100.00
6464;BME280;3265;42.694;23.282;2023-01-20T05:42:24;93434.53;;;7.86;100.00
6464;BME280;3265;42.694;23.282;2023-01-20T05:44:51;93419.25;;;7.84;100.00
6464;BME280;3265;42.694;23.282;2023-01-20T05:47:18;93408.69;;;7.86;100.00
6464;BME280;3265;42.694;23.282;2023-01-20T05:49:46;93400.59;;;8.11;100.00
6464;BME280;3265;42.694;23.282;2023-01-20T05:52:13;93399.88;;;8.15;100.00
6464;BME280;3265;42.694;23.282;2023-01-20T05:54:39;93407.25;;;8.23;100.00
6464;BME280;3265;42.694;23.282;2023-01-20T05:57:06;93381.56;;;8.33;100.00
6464;BME280;3265;42.694;23.282;2023-01-20T05:59:33;93359.59;;;8.36;100.00
6464;BME280;3265;42.694;23.282;2023-01-20T06:02:00;93397.16;;;8.38;100.00
6464;BME280;3265;42.694;23.282;2023-01-20T06:04:26;93420.41;;;8.33;100.00
6464;BME280;3265;42.694;23.282;2023-01-20T06:06:55;93397.97;;;8.39;100.00
6464;BME280;3265;42.694;23.282;2023-01-20T06:09:21;93412.84;;;8.32;100.00
6464;BME280;3265;42.694;23.282;2023-01-20T06:11:49;93414.28;;;8.39;100.00
6464;BME280;3265;42.694;23.282;2023-01-20T06:14:16;93393.09;;;8.42;100.00
6464;BME280;3265;42.694;23.282;2023-01-20T06:16:43;93394.19;;;8.46;100.00
6464;BME280;3265;42.694;23.282;2023-01-20T06:19:10;93417.16;;;8.43;100.00
6464;BME280;3265;42.694;23.282;2023-01-20T06:21:37;93425.72;;;8.43;100.00
6464;BME280;3265;42.694;23.282;2023-01-20T06:24:08;93404.53;;;8.46;100.00
6464;BME280;3265;42.694;23.282;2023-01-20T06:26:35;93401.72;;;8.48;100.00
6464;BME280;3265;42.694;23.282;2023-01-20T06:29:04;93416.16;;;8.61;100.00
6464;BME280;3265;42.694;23.282;2023-01-20T06:31:31;93408.94;;;8.63;100.00
6464;BME280;3265;42.694;23.282;2023-01-20T06:33:57;93396.69;;;8.58;100.00
6464;BME280;3265;42.694;23.282;2023-01-20T06:36:24;93404.47;;;8.58;100.00
6464;BME280;3265;42.694;23.282;2023-01-20T06:38:52;93421.56;;;8.59;100.00
6464;BME280;3265;42.694;23.282;2023-01-20T06:41:20;93420.00;;;8.58;100.00
6464;BME280;3265;42.694;23.282;2023-01-20T06:43:47;93408.16;;;8.62;100.00
6464;BME280;3265;42.694;23.282;2023-01-20T06:46:15;93401.25;;;8.68;100.00
6464;BME280;3265;42.694;23.282;2023-01-20T06:48:42;93391.28;;;8.76;100.00
6464;BME280;3265;42.694;23.282;2023-01-20T06:51:11;93385.09;;;8.77;100.00
6464;BME280;3265;42.694;23.282;2023-01-20T06:53:39;93398.88;;;8.83;100.00
6464;BME280;3265;42.694;23.282;2023-01-20T06:56:06;93391.34;;;8.81;100.00
6464;BME280;3265;42.694;23.282;2023-01-20T06:58:34;93391.97;;;8.88;100.00
6464;BME280;3265;42.694;23.282;2023-01-20T07:01:06;93391.00;;;8.94;100.00
6464;BME280;3265;42.694;23.282;2023-01-20T07:03:34;93397.75;;;8.95;100.00
6464;BME280;3265;42.694;23.282;2023-01-20T07:06:02;93401.59;;;8.93;100.00
6464;BME280;3265;42.694;23.282;2023-01-20T07:08:30;93390.75;;;8.96;100.00
6464;BME280;3265;42.694;23.282;2023-01-20T07:10:57;93390.38;;;8.87;100.00
6464;BME280;3265;42.694;23.282;2023-01-20T07:13:24;93391.66;;;8.85;100.00
6464;BME280;3265;42.694;23.282;2023-01-20T07:15:54;93379.19;;;8.82;100.00
6464;BME280;3265;42.694;23.282;2023-01-20T07:18:21;93397.75;;;8.95;100.00
6464;BME280;3265;42.694;23.282;2023-01-20T07:20:52;93394.13;;;8.96;100.00
6464;BME280;3265;42.694;23.282;2023-01-20T07:23:19;93395.22;;;9.00;100.00
6464;BME280;3265;42.694;23.282;2023-01-20T07:25:46;93399.69;;;9.05;100.00
6464;BME280;3265;42.694;23.282;2023-01-20T07:28:13;93388.22;;;9.01;100.00
6464;BME280;3265;42.694;23.282;2023-01-20T07:30:50;93391.63;;;9.01;100.00
6464;BME280;3265;42.694;23.282;2023-01-20T07:33:18;93388.06;;;9.07;100.00
6464;BME280;3265;42.694;23.282;2023-01-20T07:35:50;93383.84;;;9.01;100.00
6464;BME280;3265;42.694;23.282;2023-01-20T07:38:20;93377.06;;;9.00;100.00
6464;BME280;3265;42.694;23.282;2023-01-20T07:40:47;93369.56;;;8.99;100.00
6464;BME280;3265;42.694;23.282;2023-01-20T07:43:30;93367.13;;;9.09;100.00
6464;BME280;3265;42.694;23.282;2023-01-20T07:46:07;93362.16;;;9.07;100.00
6464;BME280;3265;42.694;23.282;2023-01-20T07:48:38;93362.16;;;9.07;100.00
6464;BME280;3265;42.694;23.282;2023-01-20T07:51:15;93365.06;;;9.11;100.00
6464;BME280;3265;42.694;23.282;2023-01-20T07:53:47;93377.16;;;9.05;100.00
6464;BME280;3265;42.694;23.282;2023-01-20T07:56:21;93354.50;;;8.96;100.00
6464;BME280;3265;42.694;23.282;2023-01-20T07:58:48;93344.75;;;9.03;100.00
6464;BME280;3265;42.694;23.282;2023-01-20T08:01:18;93351.47;;;9.04;100.00
6464;BME280;3265;42.694;23.282;2023-01-20T08:03:59;93365.81;;;8.90;100.00
6464;BME280;3265;42.694;23.282;2023-01-20T08:06:26;93362.22;;;8.91;100.00
6464;BME280;3265;42.694;23.282;2023-01-20T08:08:54;93341.13;;;8.82;100.00
6464;BME280;3265;42.694;23.282;2023-01-20T08:11:21;93340.22;;;8.93;100.00
6464;BME280;3265;42.694;23.282;2023-01-20T08:13:51;93327.47;;;8.92;100.00
6464;BME280;3265;42.694;23.282;2023-01-20T08:16:19;93321.53;;;8.91;100.00
6464;BME280;3265;42.694;23.282;2023-01-20T08:18:46;93321.88;;;8.78;100.00
6464;BME280;3265;42.694;23.282;2023-01-20T08:21:25;93342.00;;;8.71;100.00
6464;BME280;3265;42.694;23.282;2023-01-20T08:23:55;93344.75;;;8.65;100.00
6464;BME280;3265;42.694;23.282;2023-01-20T08:26:27;93349.84;;;8.76;100.00
6464;BME280;3265;42.694;23.282;2023-01-20T08:28:54;93361.88;;;8.66;100.00
6464;BME280;3265;42.694;23.282;2023-01-20T08:31:22;93343.97;;;8.64;100.00
6464;BME280;3265;42.694;23.282;2023-01-20T08:33:51;93344.66;;;8.76;100.00
6464;BME280;3265;42.694;23.282;2023-01-20T08:36:23;93343.69;;;8.82;100.00
6464;BME280;3265;42.694;23.282;2023-01-20T08:38:58;93328.38;;;8.81;100.00
6464;BME280;3265;42.694;23.282;2023-01-20T08:41:28;93311.09;;;8.86;100.00
6464;BME280;3265;42.694;23.282;2023-01-20T08:43:58;93294.72;;;8.81;100.00
6464;BME280;3265;42.694;23.282;2023-01-20T08:46:37;93288.88;;;8.90;100.00
6464;BME280;3265;42.694;23.282;2023-01-20T08:49:05;93294.44;;;8.99;100.00
6464;BME280;3265;42.694;23.282;2023-01-20T08:51:34;93295.25;;;9.04;100.00
6464;BME280;3265;42.694;23.282;2023-01-20T08:54:01;93272.47;;;9.06;100.00
6464;BME280;3265;42.694;23.282;2023-01-20T08:56:29;93264.56;;;9.18;100.00
6464;BME280;3265;42.694;23.282;2023-01-20T08:58:57;93269.75;;;9.18;100.00
6464;BME280;3265;42.694;23.282;2023-01-20T09:01:26;93270.53;;;9.19;100.00
6464;BME280;3265;42.694;23.282;2023-01-20T09:03:54;93271.63;;;9.23;100.00
6464;BME280;3265;42.694;23.282;2023-01-20T09:06:22;93280.28;;;9.33;100.00
6464;BME280;3265;42.694;23.282;2023-01-20T09:08:50;93270.06;;;9.48;100.00
6464;BME280;3265;42.694;23.282;2023-01-20T09:11:20;93274.03;;;9.56;100.00
6464;BME280;3265;42.694;23.282;2023-01-20T09:13:47;93266.50;;;9.54;100.00
6464;BME280;3265;42.694;23.282;2023-01-20T09:16:15;93275.63;;;9.62;100.00
6464;BME280;3265;42.694;23.282;2023-01-20T09:18:42;93303.88;;;9.58;100.00
6464;BME280;3265;42.694;23.282;2023-01-20T09:21:10;93278.19;;;9.57;100.00
6464;BME280;3265;42.694;23.282;2023-01-20T09:23:38;93279.22;;;9.56;100.00
6464;BME280;3265;42.694;23.282;2023-01-20T09:26:07;93292.44;;;9.54;100.00
6464;BME280;3265;42.694;23.282;2023-01-20T09:28:34;93271.09;;;9.47;100.00
6464;BME280;3265;42.694;23.282;2023-01-20T09:31:03;93279.44;;;9.49;100.00
6464;BME280;3265;42.694;23.282;2023-01-20T09:33:31;93266.88;;;9.41;100.00
6464;BME280;3265;42.694;23.282;2023-01-20T09:36:00;93267.09;;;9.35;100.00
6464;BME280;3265;42.694;23.282;2023-01-20T09:38:28;93262.47;;;9.15;100.00
6464;BME280;3265;42.694;23.282;2023-01-20T09:41:16;93269.13;;;9.33;100.00
6464;BME280;3265;42.694;23.282;2023-01-20T09:44:14;93269.53;;;9.46;100.00
6464;BME280;3265;42.694;23.282;2023-01-20T09:47:11;93276.69;;;9.34;100.00
6464;BME280;3265;42.694;23.282;2023-01-20T09:49:56;93278.03;;;9.42;100.00
6464;BME280;3265;42.694;23.282;2023-01-20T09:52:44;93278.34;;;9.45;100.00
6464;BME280;3265;42.694;23.282;2023-01-20T09:55:37;93278.97;;;9.57;100.00
6464;BME280;3265;42.694;23.282;2023-01-20T09:58:14;93268.66;;;9.62;100.00
6464;BME280;3265;42.694;23.282;2023-01-20T10:00:46;93256.81;;;9.72;100.00
6464;BME280;3265;42.694;23.282;2023-01-20T10:03:17;93252.25;;;9.84;100.00
6464;BME280;3265;42.694;23.282;2023-01-20T10:05:48;93255.97;;;9.98;100.00
6464;BME280;3265;42.694;23.282;2023-01-20T10:08:20;93267.81;;;10.15;100.00
6464;BME280;3265;42.694;23.282;2023-01-20T10:10:53;93258.78;;;10.28;100.00
6464;BME280;3265;42.694;23.282;2023-01-20T10:13:27;93240.38;;;10.30;100.00
6464;BME280;3265;42.694;23.282;2023-01-20T10:16:00;93249.59;;;10.47;100.00
6464;BME280;3265;42.694;23.282;2023-01-20T10:18:36;93232.22;;;10.53;100.00
6464;BME280;3265;42.694;23.282;2023-01-20T10:21:08;93217.47;;;10.68;100.00
6464;BME280;3265;42.694;23.282;2023-01-20T10:23:41;93204.53;;;10.78;100.00
6464;BME280;3265;42.694;23.282;2023-01-20T10:26:13;93221.16;;;10.82;100.00
6464;BME280;3265;42.694;23.282;2023-01-20T10:28:48;93219.84;;;10.80;100.00
6464;BME280;3265;42.694;23.282;2023-01-20T10:31:22;93225.53;;;10.77;100.00
6464;BME280;3265;42.694;23.282;2023-01-20T10:33:53;93236.22;;;10.80;100.00
6464;BME280;3265;42.694;23.282;2023-01-20T10:36:26;93213.13;;;10.84;100.00
6464;BME280;3265;42.694;23.282;2023-01-20T10:38:56;93221.63;;;10.69;100.00
6464;BME280;3265;42.694;23.282;2023-01-20T10:41:30;93235.94;;;10.77;100.00
6464;BME280;3265;42.694;23.282;2023-01-20T10:44:00;93226.56;;;10.71;100.00
6464;BME280;3265;42.694;23.282;2023-01-20T10:46:41;93217.72;;;10.67;100.00
6464;BME280;3265;42.694;23.282;2023-01-20T10:49:37;93213.75;;;10.49;100.00
6464;BME280;3265;42.694;23.282;2023-01-20T10:52:28;93231.28;;;10.27;100.00
6464;BME280;3265;42.694;23.282;2023-01-20T10:55:05;93218.56;;;10.31;100.00
6464;BME280;3265;42.694;23.282;2023-01-20T10:57:37;93215.22;;;10.30;100.00
6464;BME280;3265;42.694;23.282;2023-01-20T11:02:43;93231.84;;;10.34;100.00
6464;BME280;3265;42.694;23.282;2023-01-20T11:05:16;93232.13;;;10.38;100.00
6464;BME280;3265;42.694;23.282;2023-01-20T11:07:44;93229.94;;;10.24;100.00
6464;BME280;3265;42.694;23.282;2023-01-20T11:10:16;93231.84;;;10.02;100.00
6464;BME280;3265;42.694;23.282;2023-01-20T11:12:45;93229.72;;;9.94;100.00
6464;BME280;3265;42.694;23.282;2023-01-20T11:15:19;93224.06;;;9.65;100.00
6464;BME280;3265;42.694;23.282;2023-01-20T11:18:22;93227.13;;;9.57;100.00
6464;BME280;3265;42.694;23.282;2023-01-20T11:20:52;93235.69;;;9.58;100.00
6464;BME280;3265;42.694;23.282;2023-01-20T11:23:21;93240.09;;;9.57;100.00
6464;BME280;3265;42.694;23.282;2023-01-20T11:25:53;93222.97;;;9.61;100.00
6464;BME280;3265;42.694;23.282;2023-01-20T11:28:21;93204.47;;;9.48;100.00
6464;BME280;3265;42.694;23.282;2023-01-20T11:30:53;93225.91;;;9.11;100.00
6464;BME280;3265;42.694;23.282;2023-01-20T11:33:24;93221.84;;;8.94;100.00
6464;BME280;3265;42.694;23.282;2023-01-20T11:35:59;93227.16;;;8.82;100.00
6464;BME280;3265;42.694;23.282;2023-01-20T11:38:27;93228.59;;;8.73;100.00
6464;BME280;3265;42.694;23.282;2023-01-20T11:40:56;93241.03;;;8.54;100.00
6464;BME280;3265;42.694;23.282;2023-01-20T11:43:27;93236.72;;;8.22;100.00
6464;BME280;3265;42.694;23.282;2023-01-20T11:46:12;93248.53;;;8.18;100.00
6464;BME280;3265;42.694;23.282;2023-01-20T11:48:46;93256.25;;;7.96;100.00
6464;BME280;3265;42.694;23.282;2023-01-20T11:51:20;93256.97;;;7.75;100.00
6464;BME280;3265;42.694;23.282;2023-01-20T11:53:49;93248.34;;;7.69;100.00
6464;BME280;3265;42.694;23.282;2023-01-20T11:56:19;93255.16;;;7.59;100.00
6464;BME280;3265;42.694;23.282;2023-01-20T11:58:50;93254.56;;;7.40;100.00
6464;BME280;3265;42.694;23.282;2023-01-20T12:01:24;93263.97;;;7.29;100.00
6464;BME280;3265;42.694;23.282;2023-01-20T12:04:20;93256.53;;;7.05;100.00
6464;BME280;3265;42.694;23.282;2023-01-20T12:06:52;93264.78;;;6.90;100.00
6464;BME280;3265;42.694;23.282;2023-01-20T12:09:25;93284.63;;;6.50;100.00
6464;BME280;3265;42.694;23.282;2023-01-20T12:11:57;93278.56;;;6.33;100.00
6464;BME280;3265;42.694;23.282;2023-01-20T12:14:29;93270.09;;;6.09;100.00
6464;BME280;3265;42.694;23.282;2023-01-20T12:17:11;93275.44;;;5.96;100.00
6464;BME280;3265;42.694;23.282;2023-01-20T12:19:56;93278.56;;;5.86;100.00
6464;BME280;3265;42.694;23.282;2023-01-20T12:22:31;93318.84;;;5.69;100.00
6464;BME280;3265;42.694;23.282;2023-01-20T12:25:08;93318.72;;;5.52;100.00
6464;BME280;3265;42.694;23.282;2023-01-20T12:27:48;93309.13;;;5.30;100.00
6464;BME280;3265;42.694;23.282;2023-01-20T12:30:41;93348.09;;;5.33;100.00
6464;BME280;3265;42.694;23.282;2023-01-20T12:33:18;93340.47;;;5.08;100.00
6464;BME280;3265;42.694;23.282;2023-01-20T12:36:20;93346.16;;;4.81;100.00
6464;BME280;3265;42.694;23.282;2023-01-20T12:39:13;93359.44;;;4.41;100.00
6464;BME280;3265;42.694;23.282;2023-01-20T12:44:50;93378.13;;;4.06;100.00
6464;BME280;3265;42.694;23.282;2023-01-20T12:47:28;93373.19;;;4.04;100.00
6464;BME280;3265;42.694;23.282;2023-01-20T12:50:13;93372.03;;;4.00;100.00
6464;BME280;3265;42.694;23.282;2023-01-20T12:52:58;93373.19;;;4.04;100.00
6464;BME280;3265;42.694;23.282;2023-01-20T12:55:47;93358.78;;;4.03;100.00
6464;BME280;3265;42.694;23.282;2023-01-20T12:58:23;93370.56;;;4.11;100.00
6464;BME280;3265;42.694;23.282;2023-01-20T13:01:12;93356.88;;;4.17;100.00
6464;BME280;3265;42.694;23.282;2023-01-20T13:06:53;93366.09;;;4.24;100.00
6464;BME280;3265;42.694;23.282;2023-01-20T13:09:43;93359.34;;;4.30;100.00
6464;BME280;3265;42.694;23.282;2023-01-20T13:12:28;93366.41;;;4.34;100.00
6464;BME280;3265;42.694;23.282;2023-01-20T13:15:01;93356.13;;;4.34;100.00
6464;BME280;3265;42.694;23.282;2023-01-20T13:17:35;93371.50;;;4.41;100.00
6464;BME280;3265;42.694;23.282;2023-01-20T13:20:13;93380.88;;;4.53;100.00
6464;BME280;3265;42.694;23.282;2023-01-20T13:22:41;93390.91;;;4.62;100.00
6464;BME280;3265;42.694;23.282;2023-01-20T13:25:14;93399.31;;;4.69;100.00
6464;BME280;3265;42.694;23.282;2023-01-20T13:27:44;93395.69;;;4.58;100.00
6464;BME280;3265;42.694;23.282;2023-01-20T13:30:39;93396.75;;;4.69;100.00
6464;BME280;3265;42.694;23.282;2023-01-20T13:33:14;93404.13;;;4.83;100.00
6464;BME280;3265;42.694;23.282;2023-01-20T13:35:46;93397.31;;;4.71;100.00
6464;BME280;3265;42.694;23.282;2023-01-20T13:38:22;93392.25;;;4.64;100.00
6464;BME280;3265;42.694;23.282;2023-01-20T13:40:53;93386.81;;;4.72;100.00
6464;BME280;3265;42.694;23.282;2023-01-20T13:43:45;93394.31;;;4.55;100.00
6464;BME280;3265;42.694;23.282;2023-01-20T13:49:43;93396.19;;;4.67;100.00
6464;BME280;3265;42.694;23.282;2023-01-20T13:52:10;93391.75;;;4.74;100.00